Rollo, Illinois
Current Conditions -  °F | °C
As of 1:15 PM on Tuesday 21 Oct 2014 (Local Time) from KVYS Reporting Station
Scattered Clouds Scattered Clouds  
Wind Chill: 14°   Ceiling: Unl
Heat Index: 14°   Visibility: 10mi
Dew Point:   Wind: 7mph
Humidity: 50%   Direction: 50°NE
Pressure: 30.18"   Gusts: NA
Location:  41.5869°N, 88.887°W
Report Text: KVYS 211815Z AUTO 05006KT 10SM SCT041 14/03 A3018 RMK AO2 T01370033
Loading
Personal Weather Stations






























Interactive Weather Map
Tropical Storm Tracking
New forecast layout! Learn more

10-Day Weather Forecast

Advertisements
Track Severe Weather on mobile